createdAt,value
2023-01-06T00:00:22.517Z,13.13
2023-01-06T00:02:54.438Z,12.59
2023-01-06T00:05:25.112Z,12.37
2023-01-06T00:07:55.946Z,12.08
2023-01-06T00:10:26.490Z,12.74
2023-01-06T00:12:56.990Z,13.32
2023-01-06T00:15:28.672Z,13.18
2023-01-06T00:17:59.159Z,13.09
2023-01-06T00:20:29.603Z,12.56
2023-01-06T00:23:00.112Z,12.65
2023-01-06T00:25:30.672Z,12.71
2023-01-06T00:28:02.630Z,12.68
2023-01-06T00:30:33.211Z,12.46
2023-01-06T00:33:08.621Z,13.31
2023-01-06T00:35:41.358Z,13.22
2023-01-06T00:38:12.272Z,13.47
2023-01-06T00:40:42.868Z,13.59
2023-01-06T00:43:13.315Z,13.43
2023-01-06T00:45:43.816Z,13.67
2023-01-06T00:48:14.275Z,13.43
2023-01-06T00:50:45.976Z,13.17
2023-01-06T00:53:17.121Z,13.17
2023-01-06T00:55:47.552Z,13.47
2023-01-06T00:58:19.215Z,13.45
2023-01-06T01:00:49.784Z,13.31
2023-01-06T01:03:20.464Z,12.63
2023-01-06T01:05:51.339Z,12.45
2023-01-06T01:08:21.850Z,12.09
2023-01-06T01:10:53.112Z,12.57
2023-01-06T01:13:23.570Z,12.08
2023-01-06T01:15:54.045Z,13.07
2023-01-06T01:18:24.596Z,13.06
2023-01-06T01:20:55.156Z,12.78
2023-01-06T01:23:25.603Z,12.70
2023-01-06T01:25:59.294Z,12.71
2023-01-06T01:28:29.729Z,12.63
2023-01-06T01:31:04.146Z,12.34
2023-01-06T01:33:34.555Z,14.37
2023-01-06T01:36:09.676Z,14.50
2023-01-06T01:38:40.208Z,14.27
2023-01-06T01:41:15.853Z,14.41
2023-01-06T01:43:49.107Z,14.51
2023-01-06T01:46:28.607Z,14.31
2023-01-06T01:49:02.196Z,14.06
2023-01-06T01:51:35.585Z,14.28
2023-01-06T01:54:09.041Z,13.93
2023-01-06T01:56:46.056Z,14.19
2023-01-06T01:59:19.671Z,13.92
2023-01-06T02:01:52.353Z,13.97
2023-01-06T02:04:26.085Z,14.33
2023-01-06T02:06:57.422Z,14.58
2023-01-06T02:09:36.537Z,14.30
2023-01-06T02:12:09.020Z,12.46
2023-01-06T02:14:39.541Z,12.32
2023-01-06T02:17:21.850Z,11.78
2023-01-06T02:20:04.650Z,12.16
2023-01-06T02:22:53.411Z,12.26
2023-01-06T02:25:32.429Z,12.47
2023-01-06T02:28:25.345Z,12.16
2023-01-06T02:30:58.805Z,11.82
2023-01-06T02:33:36.620Z,12.10
2023-01-06T02:36:37.355Z,12.46
2023-01-06T02:39:27.364Z,12.22
2023-01-06T02:42:01.283Z,13.03
2023-01-06T02:44:43.611Z,12.31
2023-01-06T02:47:22.813Z,12.09
2023-01-06T02:50:02.205Z,12.49
2023-01-06T02:52:38.757Z,12.74
2023-01-06T02:55:14.986Z,12.73
2023-01-06T02:57:48.331Z,12.83
2023-01-06T03:00:24.667Z,12.70
2023-01-06T03:03:01.231Z,12.85
2023-01-06T03:05:34.620Z,12.40
2023-01-06T03:08:08.043Z,12.58
2023-01-06T03:10:40.243Z,12.89
2023-01-06T03:13:28.791Z,12.35
2023-01-06T03:15:59.631Z,12.27
2023-01-06T03:18:31.116Z,12.37
2023-01-06T03:21:04.018Z,12.45
2023-01-06T03:23:35.430Z,12.57
2023-01-06T03:26:06.208Z,12.85
2023-01-06T03:28:36.680Z,13.09
2023-01-06T03:31:35.380Z,12.91
2023-01-06T03:34:25.568Z,13.25
2023-01-06T03:37:08.272Z,13.22
2023-01-06T03:39:47.536Z,13.08
2023-01-06T03:42:45.005Z,13.54
2023-01-06T03:45:23.736Z,13.54
2023-01-06T03:47:57.179Z,13.59
2023-01-06T03:50:45.551Z,12.98
2023-01-06T03:53:28.118Z,12.37
2023-01-06T03:56:01.497Z,13.09
2023-01-06T03:58:32.637Z,12.48
2023-01-06T04:01:03.873Z,13.03
2023-01-06T04:03:35.604Z,13.31
2023-01-06T04:06:06.594Z,13.38
2023-01-06T04:08:37.037Z,13.21
2023-01-06T04:11:07.600Z,13.33
2023-01-06T04:13:38.175Z,13.08
2023-01-06T04:16:08.998Z,13.18
2023-01-06T04:18:39.551Z,13.53
2023-01-06T04:21:10.054Z,13.49
2023-01-06T04:23:40.606Z,13.62
2023-01-06T04:26:11.058Z,13.70
2023-01-06T04:28:41.783Z,13.85
2023-01-06T04:31:12.312Z,13.54
2023-01-06T04:33:42.860Z,13.71
2023-01-06T04:36:13.356Z,13.85
2023-01-06T04:38:43.903Z,14.07
2023-01-06T04:41:15.183Z,14.05
2023-01-06T04:43:45.688Z,13.81
2023-01-06T04:46:16.226Z,13.58
2023-01-06T04:48:46.729Z,13.59
2023-01-06T04:51:17.209Z,13.70
2023-01-06T04:53:47.991Z,13.87
2023-01-06T04:56:18.464Z,13.91
2023-01-06T04:58:48.930Z,13.72
2023-01-06T05:01:19.687Z,13.69
2023-01-06T05:03:50.362Z,13.91
2023-01-06T05:06:21.634Z,13.78
2023-01-06T05:08:52.195Z,13.78
2023-01-06T05:11:24.971Z,13.99
2023-01-06T05:13:56.892Z,13.98
2023-01-06T05:16:33.311Z,13.84
2023-01-06T05:19:04.247Z,13.89
2023-01-06T05:21:35.936Z,13.91
2023-01-06T05:24:07.088Z,13.82
2023-01-06T05:26:37.575Z,13.63
2023-01-06T05:29:08.231Z,13.98
2023-01-06T05:31:38.802Z,13.95
2023-01-06T05:34:11.142Z,14.01
2023-01-06T05:36:41.572Z,14.13
2023-01-06T05:39:12.117Z,14.03
2023-01-06T05:41:42.596Z,13.92
2023-01-06T05:44:14.376Z,13.98
2023-01-06T05:46:44.911Z,14.19
2023-01-06T05:49:15.460Z,14.58
2023-01-06T05:51:46.056Z,14.56
2023-01-06T05:54:16.737Z,14.30
2023-01-06T05:56:47.184Z,14.08
2023-01-06T05:59:17.924Z,14.05
2023-01-06T06:01:48.613Z,14.15
2023-01-06T06:04:19.085Z,13.95
2023-01-06T06:06:49.547Z,13.98
2023-01-06T06:09:20.116Z,13.98
2023-01-06T06:11:52.126Z,14.15
2023-01-06T06:14:22.887Z,13.97
2023-01-06T06:16:53.852Z,13.98
2023-01-06T06:19:24.660Z,14.22
2023-01-06T06:21:55.182Z,13.90
2023-01-06T06:24:25.684Z,14.19
2023-01-06T06:26:56.137Z,14.24
2023-01-06T06:29:26.622Z,14.41
2023-01-06T06:31:57.105Z,14.26
2023-01-06T06:34:27.647Z,13.74
2023-01-06T06:36:58.111Z,14.07
2023-01-06T06:39:28.799Z,14.15
2023-01-06T06:41:59.260Z,14.03
2023-01-06T06:44:29.793Z,13.96
2023-01-06T06:47:00.381Z,14.21
2023-01-06T06:49:30.955Z,14.20
2023-01-06T06:52:02.697Z,14.22
2023-01-06T06:54:33.243Z,14.21
2023-01-06T06:57:05.087Z,14.01
2023-01-06T06:59:35.572Z,15.30
2023-01-06T07:02:06.524Z,14.42
2023-01-06T07:04:37.335Z,14.08
2023-01-06T07:07:07.915Z,13.87
2023-01-06T07:09:38.462Z,13.81
2023-01-06T07:12:09.308Z,14.25
2023-01-06T07:14:39.739Z,14.00
2023-01-06T07:17:10.209Z,13.45
2023-01-06T07:19:40.769Z,14.05
2023-01-06T07:22:11.427Z,14.09
2023-01-06T07:24:41.990Z,14.05
2023-01-06T07:27:12.592Z,14.14
2023-01-06T07:29:43.128Z,14.21
2023-01-06T07:32:14.212Z,13.88
2023-01-06T07:34:45.433Z,14.01
2023-01-06T07:37:16.042Z,13.65
2023-01-06T07:39:46.716Z,13.56
2023-01-06T07:42:18.642Z,13.89
2023-01-06T07:44:49.147Z,13.56
2023-01-06T07:47:19.673Z,13.62
2023-01-06T07:49:50.322Z,13.30
2023-01-06T07:52:20.856Z,13.47
2023-01-06T07:54:51.762Z,13.18
2023-01-06T07:57:22.236Z,13.50
2023-01-06T07:59:52.680Z,13.07
2023-01-06T08:02:24.190Z,13.59
2023-01-06T08:04:55.587Z,14.26
2023-01-06T08:07:27.733Z,14.25
2023-01-06T08:09:59.796Z,14.17
2023-01-06T08:12:31.701Z,14.25
2023-01-06T08:15:02.602Z,13.81
2023-01-06T08:17:36.249Z,13.38
2023-01-06T08:20:08.816Z,13.32
2023-01-06T08:22:40.779Z,13.44
2023-01-06T08:25:12.082Z,13.04
2023-01-06T08:27:42.637Z,12.72
2023-01-06T08:30:13.947Z,12.80
2023-01-06T08:32:46.124Z,12.62
2023-01-06T08:35:16.807Z,13.64
2023-01-06T08:37:50.196Z,13.15
2023-01-06T08:40:23.469Z,13.12
2023-01-06T08:42:55.402Z,12.55
2023-01-06T08:45:26.796Z,12.78
2023-01-06T08:47:58.592Z,12.20
2023-01-06T08:50:30.684Z,12.55
2023-01-06T08:53:01.764Z,12.59
2023-01-06T08:55:32.341Z,12.17
2023-01-06T08:58:04.305Z,12.23
2023-01-06T09:00:37.289Z,12.57
2023-01-06T09:03:09.609Z,12.67
2023-01-06T09:05:41.573Z,12.87
2023-01-06T09:08:13.789Z,12.65
2023-01-06T09:10:47.035Z,12.22
2023-01-06T09:13:17.917Z,12.29
2023-01-06T09:15:51.882Z,12.58
2023-01-06T09:18:23.298Z,13.19
2023-01-06T09:20:56.723Z,12.30
2023-01-06T09:23:28.201Z,12.96
2023-01-06T09:25:59.674Z,12.96
2023-01-06T09:28:33.324Z,12.16
2023-01-06T09:31:10.267Z,12.51
2023-01-06T09:33:44.314Z,11.81
2023-01-06T09:36:16.147Z,12.12
2023-01-06T09:38:49.012Z,12.72
2023-01-06T09:41:34.648Z,13.48
2023-01-06T09:44:25.597Z,12.75
2023-01-06T09:47:00.070Z,12.24
2023-01-06T09:50:00.747Z,12.18
2023-01-06T09:52:45.406Z,11.60
2023-01-06T09:55:34.107Z,11.86
2023-01-06T09:58:25.488Z,12.14
2023-01-06T10:00:59.537Z,11.94
2023-01-06T10:03:32.933Z,11.97
2023-01-06T10:06:29.156Z,12.46
2023-01-06T10:09:03.403Z,12.39
2023-01-06T10:11:49.064Z,12.35
2023-01-06T10:14:42.932Z,11.29
2023-01-06T10:17:22.859Z,12.40
2023-01-06T10:20:02.419Z,12.59
2023-01-06T10:22:41.959Z,12.39
2023-01-06T10:25:18.228Z,12.53
2023-01-06T10:28:01.708Z,12.88
2023-01-06T10:30:43.853Z,12.44
2023-01-06T10:33:19.096Z,12.25
2023-01-06T10:35:52.079Z,12.51
2023-01-06T10:38:42.495Z,12.59
2023-01-06T10:41:35.587Z,12.88
2023-01-06T10:44:07.129Z,12.20
2023-01-06T10:46:38.601Z,12.11
2023-01-06T10:49:11.993Z,12.39
2023-01-06T10:51:46.345Z,12.07
2023-01-06T10:54:25.632Z,13.10
2023-01-06T10:57:01.139Z,13.30
2023-01-06T10:59:32.525Z,13.38
2023-01-06T11:02:04.791Z,13.06
2023-01-06T11:04:35.471Z,13.44
2023-01-06T11:07:09.012Z,12.90
2023-01-06T11:09:43.135Z,12.53
2023-01-06T11:12:20.241Z,13.87
2023-01-06T11:14:56.630Z,12.45
2023-01-06T11:17:29.211Z,12.84
2023-01-06T11:20:19.367Z,13.42
2023-01-06T11:22:51.406Z,13.18
2023-01-06T11:25:26.336Z,13.87
2023-01-06T11:28:19.744Z,12.41
2023-01-06T11:31:08.104Z,12.60
2023-01-06T11:33:41.493Z,12.87
2023-01-06T11:36:14.747Z,11.81
2023-01-06T11:38:56.836Z,12.68
2023-01-06T11:41:34.391Z,12.85
2023-01-06T11:44:11.971Z,12.67
2023-01-06T11:46:49.212Z,12.12
2023-01-06T11:49:29.424Z,12.51
2023-01-06T11:52:23.857Z,12.69
2023-01-06T11:55:13.378Z,12.38
2023-01-06T11:58:02.943Z,13.17
2023-01-06T12:00:56.105Z,12.21
2023-01-06T12:03:46.302Z,12.50
2023-01-06T12:06:33.254Z,12.37
2023-01-06T12:09:31.172Z,12.56
2023-01-06T12:12:07.442Z,12.49
2023-01-06T12:14:43.953Z,12.69
2023-01-06T12:17:39.843Z,12.85
2023-01-06T12:20:16.927Z,13.04
2023-01-06T12:22:53.071Z,13.32
2023-01-06T12:25:26.880Z,12.96
2023-01-06T12:28:04.696Z,12.95
2023-01-06T12:30:43.951Z,12.31
2023-01-06T12:33:26.534Z,13.00
2023-01-06T12:36:00.328Z,11.81
2023-01-06T12:39:05.745Z,11.90
2023-01-06T12:41:54.779Z,12.41
2023-01-06T12:44:43.129Z,12.00
2023-01-06T12:47:47.187Z,12.95
2023-01-06T12:50:45.519Z,12.76
2023-01-06T12:53:24.540Z,12.63
2023-01-06T12:56:00.923Z,12.55
2023-01-06T12:58:40.139Z,12.30
2023-01-06T13:01:20.178Z,12.33
2023-01-06T13:04:23.313Z,12.08
2023-01-06T13:07:20.439Z,12.47
2023-01-06T13:09:58.108Z,12.41
2023-01-06T13:13:03.231Z,13.85
2023-01-06T13:15:37.436Z,12.41
2023-01-06T13:18:14.627Z,12.98
2023-01-06T13:20:55.089Z,12.37
2023-01-06T13:23:45.526Z,13.01
2023-01-06T13:26:36.531Z,12.27
2023-01-06T13:29:26.069Z,11.98
2023-01-06T13:32:20.543Z,12.74
2023-01-06T13:35:03.104Z,11.84
2023-01-06T13:37:53.500Z,12.34
2023-01-06T13:40:28.888Z,12.95
2023-01-06T13:43:20.360Z,12.38
2023-01-06T13:45:54.011Z,12.22
2023-01-06T13:48:32.843Z,12.24
2023-01-06T13:51:09.040Z,12.09
2023-01-06T13:53:42.710Z,12.82
2023-01-06T13:56:19.460Z,12.46
2023-01-06T13:58:54.297Z,13.07
2023-01-06T14:01:27.923Z,12.35
2023-01-06T14:04:19.169Z,12.05
2023-01-06T14:06:52.947Z,12.49
2023-01-06T14:09:24.273Z,11.84
2023-01-06T14:11:58.168Z,12.09
2023-01-06T14:14:32.990Z,11.71
2023-01-06T14:17:04.596Z,12.98
2023-01-06T14:19:41.576Z,12.51
2023-01-06T14:22:25.626Z,12.53
2023-01-06T14:24:59.171Z,11.44
2023-01-06T14:27:52.296Z,11.79
2023-01-06T14:30:37.515Z,11.66
2023-01-06T14:33:25.655Z,12.03
2023-01-06T14:36:04.774Z,11.99
2023-01-06T14:38:38.986Z,11.51
2023-01-06T14:41:41.511Z,11.41
2023-01-06T14:44:23.964Z,11.69
2023-01-06T14:47:00.240Z,11.61
2023-01-06T14:49:48.774Z,11.77
2023-01-06T14:52:23.483Z,11.81
2023-01-06T14:54:56.294Z,11.64
2023-01-06T14:57:31.284Z,11.75
2023-01-06T15:00:18.034Z,12.33
2023-01-06T15:02:54.499Z,12.00
2023-01-06T15:05:32.279Z,11.81
2023-01-06T15:08:11.896Z,11.65
2023-01-06T15:10:45.299Z,11.61
2023-01-06T15:13:24.360Z,11.71
2023-01-06T15:15:57.858Z,11.49
2023-01-06T15:18:30.069Z,12.01
2023-01-06T15:21:02.441Z,11.44
2023-01-06T15:23:35.905Z,11.61
2023-01-06T15:26:06.687Z,11.27
2023-01-06T15:28:40.432Z,11.18
2023-01-06T15:31:14.615Z,11.21
2023-01-06T15:33:46.919Z,10.98
2023-01-06T15:36:20.462Z,11.59
2023-01-06T15:38:54.527Z,11.60
2023-01-06T15:41:35.904Z,10.94
2023-01-06T15:44:25.733Z,11.65
2023-01-06T15:47:01.999Z,10.87
2023-01-06T15:49:35.601Z,11.47
2023-01-06T15:52:10.299Z,11.29
2023-01-06T15:54:43.829Z,11.50
2023-01-06T15:57:17.471Z,11.84
2023-01-06T15:59:57.116Z,11.40
2023-01-06T16:02:33.037Z,10.96
2023-01-06T16:05:04.261Z,11.18
2023-01-06T16:07:44.875Z,12.44
2023-01-06T16:10:35.050Z,11.49
2023-01-06T16:13:21.439Z,11.43
2023-01-06T16:16:10.839Z,11.43
2023-01-06T16:18:44.127Z,11.73
2023-01-06T16:21:30.987Z,11.61
2023-01-06T16:24:07.100Z,11.93
2023-01-06T16:26:46.685Z,12.11
2023-01-06T16:29:29.796Z,11.88
2023-01-06T16:32:01.873Z,11.60
2023-01-06T16:34:34.647Z,12.28
2023-01-06T16:37:06.926Z,11.60
2023-01-06T16:39:38.038Z,12.08
2023-01-06T16:42:35.225Z,11.61
2023-01-06T16:45:08.899Z,12.08
2023-01-06T16:47:40.686Z,11.58
2023-01-06T16:50:24.049Z,11.85
2023-01-06T16:53:14.088Z,12.00
2023-01-06T16:55:47.315Z,12.13
2023-01-06T16:58:23.421Z,12.42
2023-01-06T17:00:58.407Z,12.26
2023-01-06T17:03:35.207Z,12.15
2023-01-06T17:06:07.999Z,12.65
2023-01-06T17:08:40.660Z,13.22
2023-01-06T17:11:24.580Z,12.83
2023-01-06T17:14:01.021Z,12.83
2023-01-06T17:16:34.876Z,18.49
2023-01-06T17:19:24.625Z,17.01
2023-01-06T17:22:10.894Z,18.13
2023-01-06T17:24:44.812Z,18.25
2023-01-06T17:27:26.123Z,16.84
2023-01-06T17:30:04.310Z,16.10
2023-01-06T17:32:40.711Z,15.41
2023-01-06T17:35:29.906Z,16.34
2023-01-06T17:38:04.314Z,16.16
2023-01-06T17:40:36.986Z,16.54
2023-01-06T17:43:10.668Z,15.68
2023-01-06T17:45:41.650Z,15.22
2023-01-06T17:48:15.373Z,15.66
2023-01-06T17:50:52.910Z,15.62
2023-01-06T17:53:59.631Z,16.55
2023-01-06T17:56:31.543Z,16.51
2023-01-06T17:59:05.186Z,15.68
2023-01-06T18:01:38.504Z,15.73
2023-01-06T18:04:12.134Z,15.51
2023-01-06T18:06:49.554Z,15.07
2023-01-06T18:09:23.995Z,16.14
2023-01-06T18:11:57.747Z,15.41
2023-01-06T18:14:42.606Z,15.28
2023-01-06T18:17:31.626Z,16.24
2023-01-06T18:20:04.374Z,15.28
2023-01-06T18:22:38.003Z,16.25
2023-01-06T18:25:10.628Z,17.05
2023-01-06T18:27:44.789Z,16.68
2023-01-06T18:30:21.691Z,16.77
2023-01-06T18:33:02.641Z,17.13
2023-01-06T18:35:35.222Z,16.73
2023-01-06T18:38:07.637Z,15.57
2023-01-06T18:40:40.651Z,15.75
2023-01-06T18:43:28.188Z,16.38
2023-01-06T18:46:03.494Z,16.48
2023-01-06T18:48:39.221Z,17.03
2023-01-06T18:51:18.400Z,17.62
2023-01-06T18:53:50.697Z,17.55
2023-01-06T18:56:30.036Z,17.61
2023-01-06T18:59:03.747Z,17.71
2023-01-06T19:01:53.919Z,17.52
2023-01-06T19:04:31.120Z,17.35
2023-01-06T19:07:12.123Z,16.96
2023-01-06T19:09:49.562Z,17.48
2023-01-06T19:12:34.579Z,16.27
2023-01-06T19:15:28.388Z,16.93
2023-01-06T19:18:00.671Z,16.75
2023-01-06T19:20:34.608Z,16.99
2023-01-06T19:23:15.812Z,16.41
2023-01-06T19:25:52.855Z,16.10
2023-01-06T19:28:25.554Z,16.34
2023-01-06T19:31:04.589Z,15.45
2023-01-06T19:33:41.260Z,16.34
2023-01-06T19:36:26.745Z,16.55
2023-01-06T19:39:00.341Z,16.49
2023-01-06T19:41:35.642Z,16.51
2023-01-06T19:44:12.316Z,16.52
2023-01-06T19:46:49.542Z,16.66
2023-01-06T19:49:27.951Z,17.17
2023-01-06T19:52:00.072Z,16.84
2023-01-06T19:54:35.932Z,16.20
2023-01-06T19:57:09.461Z,16.38
2023-01-06T19:59:42.918Z,15.77
2023-01-06T20:02:32.317Z,16.50
2023-01-06T20:05:05.326Z,16.47
2023-01-06T20:07:35.953Z,16.22
2023-01-06T20:10:08.595Z,16.23
2023-01-06T20:12:39.984Z,16.72
2023-01-06T20:15:12.415Z,16.64
2023-01-06T20:17:44.614Z,16.38
2023-01-06T20:20:16.221Z,15.95
2023-01-06T20:22:46.969Z,16.84
2023-01-06T20:25:18.053Z,16.95
2023-01-06T20:27:50.212Z,17.04
2023-01-06T20:30:20.977Z,16.88
2023-01-06T20:32:52.696Z,17.49
2023-01-06T20:35:26.561Z,17.09
2023-01-06T20:37:58.775Z,17.47
2023-01-06T20:40:30.937Z,17.60
2023-01-06T20:43:01.583Z,17.77
2023-01-06T20:45:32.874Z,18.03
2023-01-06T20:48:03.488Z,18.34
2023-01-06T20:50:35.025Z,18.24
2023-01-06T20:53:06.567Z,18.35
2023-01-06T20:55:37.960Z,18.40
2023-01-06T20:58:10.023Z,18.18
2023-01-06T21:00:40.768Z,18.22
2023-01-06T21:03:11.509Z,17.99
2023-01-06T21:05:42.773Z,17.73
2023-01-06T21:08:13.425Z,17.68
2023-01-06T21:10:45.504Z,17.86
2023-01-06T21:13:17.027Z,17.19
2023-01-06T21:15:50.009Z,17.10
2023-01-06T21:18:20.642Z,17.31
2023-01-06T21:20:51.233Z,17.17
2023-01-06T21:23:21.860Z,17.42
2023-01-06T21:25:52.902Z,17.48
2023-01-06T21:28:23.633Z,17.34
2023-01-06T21:30:55.063Z,17.43
2023-01-06T21:33:26.152Z,16.84
2023-01-06T21:35:56.834Z,16.63
2023-01-06T21:38:27.455Z,17.20
2023-01-06T21:41:05.691Z,17.31
2023-01-06T21:43:37.785Z,17.33
2023-01-06T21:46:10.043Z,16.15
2023-01-06T21:48:41.453Z,16.82
2023-01-06T21:51:12.209Z,16.93
2023-01-06T21:53:42.982Z,16.38
2023-01-06T21:56:15.036Z,16.93
2023-01-06T21:58:47.090Z,16.99
2023-01-06T22:01:19.436Z,16.78
2023-01-06T22:03:50.151Z,17.39
2023-01-06T22:06:22.944Z,16.22
2023-01-06T22:08:55.576Z,16.85
2023-01-06T22:11:31.577Z,16.69
2023-01-06T22:14:02.596Z,16.48
2023-01-06T22:16:33.828Z,16.69
2023-01-06T22:19:06.248Z,16.79
2023-01-06T22:21:37.933Z,17.08
2023-01-06T22:24:11.420Z,17.18
2023-01-06T22:26:43.470Z,17.47
2023-01-06T22:29:14.088Z,17.44
2023-01-06T22:31:47.994Z,17.83
2023-01-06T22:34:20.406Z,17.25
2023-01-06T22:36:51.806Z,16.87
2023-01-06T22:39:23.319Z,17.13
2023-01-06T22:41:57.268Z,17.96
2023-01-06T22:44:28.216Z,17.62
2023-01-06T22:46:58.893Z,17.53
2023-01-06T22:49:29.468Z,17.69
2023-01-06T22:52:00.091Z,17.07
2023-01-06T22:54:30.814Z,17.66
2023-01-06T22:57:01.400Z,17.80
2023-01-06T22:59:32.151Z,17.60
2023-01-06T23:02:02.907Z,17.52
2023-01-06T23:04:34.848Z,17.43
2023-01-06T23:07:05.743Z,17.17
2023-01-06T23:09:36.502Z,17.64
2023-01-06T23:12:07.680Z,17.89
2023-01-06T23:14:38.361Z,17.03
2023-01-06T23:17:08.949Z,17.39
2023-01-06T23:19:39.842Z,17.80
2023-01-06T23:22:10.522Z,17.31
2023-01-06T23:24:41.183Z,17.25
2023-01-06T23:27:14.051Z,17.44
2023-01-06T23:29:50.901Z,17.48
2023-01-06T23:32:22.539Z,17.37
2023-01-06T23:34:54.145Z,17.85
2023-01-06T23:37:26.373Z,17.62
2023-01-06T23:39:57.307Z,17.59
2023-01-06T23:42:28.716Z,17.14
2023-01-06T23:45:00.850Z,17.98
2023-01-06T23:47:31.546Z,17.36
2023-01-06T23:50:02.156Z,17.59
2023-01-06T23:52:33.951Z,17.60
2023-01-06T23:55:05.551Z,18.10
2023-01-06T23:57:36.070Z,18.36
